Time;durP1;ratioP1;P1;durP2;ratioP2;P2;SDS_P1;SDS_P2;PMS_P1;PMS_P2;Temp;Humidity;BMP_temperature;BMP_pressure;BME280_temperature;BME280_humidity;BME280_pressure;Samples;Min_cycle;Max_cycle;Signal;HPM_P1;HPM_P2
2022/02/20 00:01:20;;;;;;;;;;;21.90;47.00;;;;;;5155650;27;19924;-43
2022/02/20 00:03:47;;;;;;;;;;;21.90;47.00;;;;;;5156739;27;20446;-46
2022/02/20 00:06:16;;;;;;;;;;;21.90;47.00;;;;;;5157004;27;19923;-45
2022/02/20 00:08:43;;;;;;;;;;;21.90;47.00;;;;;;5156060;27;19968;-47
2022/02/20 00:11:10;;;;;;;;;;;21.90;46.90;;;;;;5156922;27;19923;-48
2022/02/20 00:13:37;;;;;;;;;;;21.90;47.00;;;;;;5156514;27;19927;-45
2022/02/20 00:16:05;;;;;;;;;;;21.90;47.00;;;;;;5155260;27;19923;-46
2022/02/20 00:18:32;;;;;;;;;;;21.90;46.90;;;;;;5156573;27;19964;-46
2022/02/20 00:20:59;;;;;;;;;;;21.90;46.90;;;;;;5156729;27;19976;-44
2022/02/20 00:23:26;;;;;;;;;;;21.90;46.90;;;;;;5155478;27;20374;-44
2022/02/20 00:25:53;;;;;;;;;;;21.90;46.90;;;;;;5156621;27;19927;-48
2022/02/20 00:28:20;;;;;;;;;;;21.90;46.90;;;;;;5156292;27;19931;-45
2022/02/20 00:30:47;;;;;;;;;;;21.90;47.00;;;;;;5155034;27;19956;-43
2022/02/20 00:33:14;;;;;;;;;;;21.90;46.90;;;;;;5156394;27;19962;-47
2022/02/20 00:35:42;;;;;;;;;;;21.80;46.90;;;;;;5156450;27;19967;-44
2022/02/20 00:38:10;;;;;;;;;;;21.90;47.00;;;;;;5155500;27;19977;-47
2022/02/20 00:40:37;;;;;;;;;;;21.80;47.50;;;;;;5156256;27;19927;-46
2022/02/20 00:43:04;;;;;;;;;;;21.80;46.90;;;;;;5156304;27;20374;-48
2022/02/20 00:45:32;;;;;;;;;;;21.80;46.90;;;;;;5154781;27;19956;-43
2022/02/20 00:47:59;;;;;;;;;;;21.80;46.90;;;;;;5156174;27;19966;-45
2022/02/20 00:50:27;;;;;;;;;;;21.80;46.90;;;;;;5156137;27;19923;-49
2022/02/20 00:52:54;;;;;;;;;;;21.80;46.90;;;;;;5155818;27;19930;-47
2022/02/20 00:55:21;;;;;;;;;;;21.80;46.90;;;;;;5155287;27;19923;-47
2022/02/20 00:57:48;;;;;;;;;;;21.80;46.90;;;;;;5155502;27;19923;-46
2022/02/20 01:00:15;;;;;;;;;;;21.80;46.80;;;;;;5153572;27;20333;-45
2022/02/20 01:02:42;;;;;;;;;;;21.80;46.80;;;;;;5134920;27;20387;-49
2022/02/20 01:05:10;;;;;;;;;;;21.80;46.80;;;;;;5135177;27;19924;-46
2022/02/20 01:07:38;;;;;;;;;;;21.80;46.80;;;;;;5135176;27;19974;-50
2022/02/20 01:10:06;;;;;;;;;;;21.80;46.80;;;;;;5147910;27;20356;-43
2022/02/20 01:12:34;;;;;;;;;;;21.80;46.80;;;;;;5155678;27;20431;-50
2022/02/20 01:15:00;;;;;;;;;;;21.80;46.80;;;;;;5155466;27;19971;-47
2022/02/20 01:17:28;;;;;;;;;;;21.80;46.80;;;;;;5154539;27;19929;-48
2022/02/20 01:19:55;;;;;;;;;;;21.80;46.80;;;;;;5154978;27;19978;-45
2022/02/20 01:22:22;;;;;;;;;;;21.80;46.80;;;;;;5155160;27;20435;-47
2022/02/20 01:24:50;;;;;;;;;;;21.80;46.80;;;;;;5154907;27;19954;-47
2022/02/20 01:27:17;;;;;;;;;;;21.80;46.80;;;;;;5155499;27;19923;-52
2022/02/20 01:29:44;;;;;;;;;;;21.80;46.80;;;;;;5155495;27;20328;-46
2022/02/20 01:32:12;;;;;;;;;;;21.80;46.80;;;;;;5154355;27;19930;-48
2022/02/20 01:34:39;;;;;;;;;;;21.80;46.80;;;;;;5155535;27;19927;-49
2022/02/20 01:37:06;;;;;;;;;;;21.80;46.80;;;;;;5155188;27;20376;-49
2022/02/20 01:39:33;;;;;;;;;;;21.80;46.80;;;;;;5136136;27;20399;-52
2022/02/20 01:42:00;;;;;;;;;;;21.80;46.80;;;;;;5155165;27;20370;-48
2022/02/20 01:44:27;;;;;;;;;;;21.80;46.80;;;;;;5155491;27;19927;-51
2022/02/20 01:47:01;;;;;;;;;;;21.80;46.80;;;;;;5154089;27;19923;-45
2022/02/20 01:49:28;;;;;;;;;;;21.80;46.80;;;;;;5155155;27;20324;-49
2022/02/20 01:51:55;;;;;;;;;;;21.80;46.80;;;;;;5154772;27;20382;-49
2022/02/20 01:54:22;;;;;;;;;;;21.80;46.80;;;;;;5136472;27;19976;-49
2022/02/20 01:56:49;;;;;;;;;;;21.80;46.70;;;;;;5155351;27;19992;-46
2022/02/20 01:59:16;;;;;;;;;;;21.80;46.70;;;;;;5155264;27;19950;-46
2022/02/20 02:01:43;;;;;;;;;;;21.80;46.80;;;;;;5154116;27;19983;-47
2022/02/20 02:04:10;;;;;;;;;;;21.80;46.80;;;;;;5154965;27;20398;-48
2022/02/20 02:06:37;;;;;;;;;;;21.80;46.70;;;;;;5154946;27;19927;-45
2022/02/20 02:09:04;;;;;;;;;;;21.80;46.70;;;;;;5136895;27;19924;-45
2022/02/20 02:11:31;;;;;;;;;;;21.80;46.80;;;;;;5136129;27;19923;-49
2022/02/20 02:13:58;;;;;;;;;;;21.80;46.80;;;;;;5155371;27;19991;-46
2022/02/20 02:16:25;;;;;;;;;;;21.70;46.70;;;;;;5153998;27;20005;-46
2022/02/20 02:18:52;;;;;;;;;;;21.70;46.70;;;;;;5154628;27;19923;-48
2022/02/20 02:21:19;;;;;;;;;;;21.80;46.70;;;;;;5154802;27;19923;-49
2022/02/20 02:23:46;;;;;;;;;;;21.80;46.70;;;;;;5155060;27;19930;-45
2022/02/20 02:26:15;;;;;;;;;;;21.80;46.70;;;;;;5135872;27;19945;-44
2022/02/20 02:28:43;;;;;;;;;;;21.70;46.70;;;;;;5136327;27;19970;-48
2022/02/20 02:31:12;;;;;;;;;;;21.80;46.70;;;;;;5153452;27;19930;-45
2022/02/20 02:33:39;;;;;;;;;;;21.70;46.70;;;;;;5158023;27;19923;-45
2022/02/20 02:36:06;;;;;;;;;;;21.70;46.70;;;;;;5140215;27;19954;-44
2022/02/20 02:38:34;;;;;;;;;;;21.70;46.70;;;;;;5158768;27;19972;-48
2022/02/20 02:41:05;;;;;;;;;;;21.70;46.70;;;;;;5158234;27;19948;-48
2022/02/20 02:43:34;;;;;;;;;;;21.70;46.70;;;;;;5158971;27;19923;-50
2022/02/20 02:46:01;;;;;;;;;;;21.70;46.70;;;;;;5158615;27;19923;-50
2022/02/20 02:48:28;;;;;;;;;;;21.70;46.60;;;;;;5157128;27;19977;-51
2022/02/20 02:50:55;;;;;;;;;;;21.70;46.70;;;;;;5140013;27;19966;-46
2022/02/20 02:53:22;;;;;;;;;;;21.70;46.60;;;;;;5158203;27;19924;-43
2022/02/20 02:55:50;;;;;;;;;;;21.70;46.70;;;;;;5157802;27;20312;-46
2022/02/20 02:58:20;;;;;;;;;;;21.70;46.70;;;;;;5158248;27;20339;-45
2022/02/20 03:00:48;;;;;;;;;;;21.70;46.60;;;;;;5158342;27;19971;-43
2022/02/20 03:03:15;;;;;;;;;;;21.70;46.60;;;;;;5157005;27;19929;-45
2022/02/20 03:05:42;;;;;;;;;;;21.70;46.60;;;;;;5158187;27;19923;-44
2022/02/20 03:08:09;;;;;;;;;;;21.70;46.70;;;;;;5157825;27;19972;-44
2022/02/20 03:10:36;;;;;;;;;;;21.70;46.60;;;;;;5157348;27;19981;-46
2022/02/20 03:13:03;;;;;;;;;;;21.70;46.70;;;;;;5157989;27;19967;-45
2022/02/20 03:15:30;;;;;;;;;;;21.70;46.60;;;;;;5158006;27;19923;-43
2022/02/20 03:17:57;;;;;;;;;;;21.70;46.60;;;;;;5156530;27;19923;-46
2022/02/20 03:20:24;;;;;;;;;;;21.70;46.70;;;;;;5157669;27;19923;-44
2022/02/20 03:22:51;;;;;;;;;;;21.70;46.60;;;;;;5157701;27;19975;-46
2022/02/20 03:25:18;;;;;;;;;;;21.70;46.60;;;;;;5157323;27;19995;-43
2022/02/20 03:27:45;;;;;;;;;;;21.70;46.60;;;;;;5157338;27;20375;-44
2022/02/20 03:30:12;;;;;;;;;;;21.70;46.60;;;;;;5157404;27;19923;-44
2022/02/20 03:32:39;;;;;;;;;;;21.70;46.60;;;;;;5156133;27;19975;-44
2022/02/20 03:35:07;;;;;;;;;;;21.70;46.60;;;;;;5157673;27;19923;-43
2022/02/20 03:37:33;;;;;;;;;;;21.70;46.60;;;;;;5157306;27;19981;-44
2022/02/20 03:40:01;;;;;;;;;;;21.70;46.60;;;;;;5157273;27;19974;-48
2022/02/20 03:42:29;;;;;;;;;;;21.70;46.60;;;;;;5156641;27;19995;-45
2022/02/20 03:44:56;;;;;;;;;;;21.70;46.60;;;;;;5156904;27;20370;-45
2022/02/20 03:47:23;;;;;;;;;;;21.70;46.60;;;;;;5156002;27;20013;-43
2022/02/20 03:49:50;;;;;;;;;;;21.70;46.60;;;;;;5157380;27;19968;-45
2022/02/20 03:52:17;;;;;;;;;;;21.70;46.60;;;;;;5157098;27;19923;-44
2022/02/20 03:54:45;;;;;;;;;;;21.70;46.60;;;;;;5157270;27;19923;-45
2022/02/20 03:57:12;;;;;;;;;;;21.70;46.60;;;;;;5156340;27;19923;-45
2022/02/20 03:59:39;;;;;;;;;;;21.70;46.60;;;;;;5157071;27;19923;-45
2022/02/20 04:02:06;;;;;;;;;;;21.70;46.60;;;;;;5155623;27;19923;-42
2022/02/20 04:04:33;;;;;;;;;;;21.70;46.60;;;;;;5156778;27;19944;-45
2022/02/20 04:07:00;;;;;;;;;;;21.70;46.60;;;;;;5157079;27;20340;-46
2022/02/20 04:09:27;;;;;;;;;;;21.70;46.60;;;;;;5138641;27;20331;-46
2022/02/20 04:11:54;;;;;;;;;;;21.70;46.50;;;;;;5137541;27;19927;-44
2022/02/20 04:14:21;;;;;;;;;;;21.70;46.50;;;;;;5156831;27;19927;-44
2022/02/20 04:16:48;;;;;;;;;;;21.70;46.50;;;;;;5156526;27;20025;-44
2022/02/20 04:19:15;;;;;;;;;;;21.70;46.50;;;;;;5155259;27;20351;-43
2022/02/20 04:21:42;;;;;;;;;;;21.60;46.50;;;;;;5137934;27;19930;-45
2022/02/20 04:24:09;;;;;;;;;;;21.70;46.50;;;;;;5156667;27;20274;-45
2022/02/20 04:26:36;;;;;;;;;;;21.70;46.50;;;;;;5155888;27;19927;-46
2022/02/20 04:29:03;;;;;;;;;;;21.70;46.50;;;;;;5156136;27;19930;-45
2022/02/20 04:31:32;;;;;;;;;;;21.70;46.50;;;;;;5156173;27;20382;-44
2022/02/20 04:33:59;;;;;;;;;;;21.70;46.50;;;;;;5155159;27;20022;-43
2022/02/20 04:36:25;;;;;;;;;;;21.70;46.50;;;;;;5156684;27;19949;-43
2022/02/20 04:38:52;;;;;;;;;;;21.70;46.50;;;;;;5156392;27;19923;-45
2022/02/20 04:41:23;;;;;;;;;;;21.70;46.50;;;;;;5155281;27;19954;-46
2022/02/20 04:43:50;;;;;;;;;;;21.70;46.50;;;;;;5155976;27;19923;-43
2022/02/20 04:46:17;;;;;;;;;;;21.70;46.50;;;;;;5156165;27;19930;-44
2022/02/20 04:48:44;;;;;;;;;;;21.70;46.50;;;;;;5154990;27;19927;-45
2022/02/20 04:51:12;;;;;;;;;;;21.70;46.50;;;;;;5156012;27;20411;-46
2022/02/20 04:53:39;;;;;;;;;;;21.70;46.50;;;;;;5156258;27;19927;-46
2022/02/20 04:56:05;;;;;;;;;;;21.70;46.50;;;;;;5154408;27;19968;-48
2022/02/20 04:58:32;;;;;;;;;;;21.70;46.50;;;;;;5155710;27;19971;-46
2022/02/20 05:00:59;;;;;;;;;;;21.70;46.50;;;;;;5155641;27;20393;-45
2022/02/20 05:03:27;;;;;;;;;;;21.70;46.50;;;;;;5154776;27;19923;-46
2022/02/20 05:05:54;;;;;;;;;;;21.70;46.50;;;;;;5155620;27;19923;-44
2022/02/20 05:08:21;;;;;;;;;;;21.70;46.40;;;;;;5155590;27;20378;-45
2022/02/20 05:10:48;;;;;;;;;;;21.70;46.40;;;;;;5155865;27;19970;-45
2022/02/20 05:13:15;;;;;;;;;;;21.70;46.40;;;;;;5154953;27;19926;-43
2022/02/20 05:15:42;;;;;;;;;;;21.70;46.40;;;;;;5155407;27;19923;-44
2022/02/20 05:18:09;;;;;;;;;;;21.70;46.40;;;;;;5154046;27;20330;-46
2022/02/20 05:20:37;;;;;;;;;;;21.70;46.40;;;;;;5155432;27;20378;-48
2022/02/20 05:23:04;;;;;;;;;;;21.70;46.40;;;;;;5155485;27;19931;-44
2022/02/20 05:25:31;;;;;;;;;;;21.70;46.40;;;;;;5155648;27;20282;-45
2022/02/20 05:27:58;;;;;;;;;;;21.70;46.40;;;;;;5154891;27;19972;-44
2022/02/20 05:30:25;;;;;;;;;;;21.70;47.00;;;;;;5155612;27;19923;-46
2022/02/20 05:32:52;;;;;;;;;;;21.70;46.40;;;;;;5155225;27;19923;-49
2022/02/20 05:35:19;;;;;;;;;;;21.70;46.40;;;;;;5134633;27;20289;-44
2022/02/20 05:37:47;;;;;;;;;;;21.70;46.30;;;;;;5134788;28;19924;-47
2022/02/20 05:40:15;;;;;;;;;;;21.70;46.30;;;;;;5116703;28;20331;-46
2022/02/20 05:42:42;;;;;;;;;;;21.70;46.30;;;;;;5143659;27;20333;-46
2022/02/20 05:45:09;;;;;;;;;;;21.70;46.30;;;;;;5155427;27;20005;-46
2022/02/20 05:47:36;;;;;;;;;;;21.70;46.30;;;;;;5155429;27;19923;-44
2022/02/20 05:50:05;;;;;;;;;;;21.70;46.30;;;;;;5154200;27;19923;-45
2022/02/20 05:52:33;;;;;;;;;;;21.70;46.30;;;;;;5154902;27;19930;-45
2022/02/20 05:55:00;;;;;;;;;;;21.70;46.30;;;;;;5155272;27;19989;-45
2022/02/20 05:57:28;;;;;;;;;;;21.70;46.30;;;;;;5154474;27;19946;-46
2022/02/20 05:59:55;;;;;;;;;;;21.70;46.30;;;;;;5155008;27;20340;-45
2022/02/20 06:02:22;;;;;;;;;;;21.70;46.30;;;;;;5154967;27;19981;-45
2022/02/20 06:04:49;;;;;;;;;;;21.70;46.20;;;;;;5153803;27;19927;-43
2022/02/20 06:07:16;;;;;;;;;;;21.70;46.30;;;;;;5157604;27;20401;-47
2022/02/20 06:09:43;;;;;;;;;;;21.60;46.20;;;;;;5160198;27;19981;-49
2022/02/20 06:12:10;;;;;;;;;;;21.70;46.30;;;;;;5158264;27;19968;-46
2022/02/20 06:14:37;;;;;;;;;;;21.60;46.20;;;;;;5159189;27;20320;-49
2022/02/20 06:17:04;;;;;;;;;;;21.60;46.20;;;;;;5159093;27;19953;-45
2022/02/20 06:19:31;;;;;;;;;;;21.60;46.20;;;;;;5157715;27;20354;-48
2022/02/20 06:21:58;;;;;;;;;;;21.70;46.30;;;;;;5158983;27;19923;-43
2022/02/20 06:24:25;;;;;;;;;;;21.70;46.30;;;;;;5159111;27;19927;-45
2022/02/20 06:26:52;;;;;;;;;;;21.70;46.20;;;;;;5159014;27;19923;-43
2022/02/20 06:29:19;;;;;;;;;;;21.70;46.20;;;;;;5157792;27;20306;-45
2022/02/20 06:31:46;;;;;;;;;;;21.70;46.20;;;;;;5158909;27;19966;-46
2022/02/20 06:34:13;;;;;;;;;;;21.70;46.20;;;;;;5157815;27;20320;-44
2022/02/20 06:36:41;;;;;;;;;;;21.70;46.20;;;;;;5140199;27;20371;-45
2022/02/20 06:39:10;;;;;;;;;;;21.70;46.20;;;;;;5158498;27;20006;-46
2022/02/20 06:41:37;;;;;;;;;;;21.70;46.20;;;;;;5158983;27;19991;-45
2022/02/20 06:44:05;;;;;;;;;;;21.70;46.20;;;;;;5157638;27;19954;-45
2022/02/20 06:46:32;;;;;;;;;;;21.70;46.20;;;;;;5158683;27;19976;-46
2022/02/20 06:48:59;;;;;;;;;;;21.70;46.20;;;;;;5157359;27;19927;-47
2022/02/20 06:51:28;;;;;;;;;;;21.70;46.20;;;;;;5158072;27;20458;-44
2022/02/20 06:53:55;;;;;;;;;;;21.70;46.20;;;;;;5158447;27;19976;-43
2022/02/20 06:56:23;;;;;;;;;;;21.70;46.70;;;;;;5158423;27;19923;-45
2022/02/20 06:58:52;;;;;;;;;;;21.70;46.10;;;;;;5157556;27;20268;-45
2022/02/20 07:01:19;;;;;;;;;;;21.70;46.10;;;;;;5139973;27;20344;-46
2022/02/20 07:03:46;;;;;;;;;;;21.70;46.10;;;;;;5158287;27;19923;-45
2022/02/20 07:06:13;;;;;;;;;;;21.70;46.10;;;;;;5138870;27;19923;-45
2022/02/20 07:08:40;;;;;;;;;;;21.70;46.10;;;;;;5158235;27;19988;-47
2022/02/20 07:11:07;;;;;;;;;;;21.70;46.10;;;;;;5139543;27;19967;-45
2022/02/20 07:13:34;;;;;;;;;;;21.70;46.00;;;;;;5139050;27;19923;-44
2022/02/20 07:16:01;;;;;;;;;;;21.70;46.00;;;;;;5157798;27;19981;-51
2022/02/20 07:18:30;;;;;;;;;;;21.70;46.00;;;;;;5156946;27;19923;-44
2022/02/20 07:20:57;;;;;;;;;;;21.70;46.00;;;;;;5156945;27;20354;-48
2022/02/20 07:23:24;;;;;;;;;;;21.70;46.00;;;;;;5157747;27;20029;-49
2022/02/20 07:25:51;;;;;;;;;;;21.70;46.00;;;;;;5158160;27;19949;-48
2022/02/20 07:28:18;;;;;;;;;;;21.70;46.00;;;;;;5156741;27;19923;-46
2022/02/20 07:30:45;;;;;;;;;;;21.70;46.00;;;;;;5157797;27;19952;-47
2022/02/20 07:33:13;;;;;;;;;;;21.70;46.00;;;;;;5157331;27;20446;-47
2022/02/20 07:35:40;;;;;;;;;;;21.70;45.90;;;;;;5156613;27;19991;-44
2022/02/20 07:38:07;;;;;;;;;;;21.70;45.90;;;;;;5157324;27;19931;-49
2022/02/20 07:40:34;;;;;;;;;;;21.70;45.90;;;;;;5157595;27;19923;-49
2022/02/20 07:43:01;;;;;;;;;;;21.70;45.80;;;;;;5156651;27;19923;-45
2022/02/20 07:45:28;;;;;;;;;;;21.80;45.90;;;;;;5157429;27;19984;-44
2022/02/20 07:47:57;;;;;;;;;;;21.80;45.90;;;;;;5157098;27;19968;-45
2022/02/20 07:50:28;;;;;;;;;;;21.80;45.90;;;;;;5156225;27;19946;-45
2022/02/20 07:52:56;;;;;;;;;;;21.80;45.80;;;;;;5157199;27;19955;-48
2022/02/20 07:55:24;;;;;;;;;;;21.80;45.80;;;;;;5156920;27;20026;-47
2022/02/20 07:57:51;;;;;;;;;;;21.80;45.80;;;;;;5157357;27;19923;-45
2022/02/20 08:00:18;;;;;;;;;;;21.80;45.80;;;;;;5137810;27;19971;-45
2022/02/20 08:02:46;;;;;;;;;;;21.80;45.70;;;;;;5157156;27;20010;-45
2022/02/20 08:05:14;;;;;;;;;;;21.80;45.70;;;;;;5155949;27;19945;-45
2022/02/20 08:07:41;;;;;;;;;;;21.80;45.70;;;;;;5157309;27;20327;-46
2022/02/20 08:10:08;;;;;;;;;;;21.90;45.70;;;;;;5156686;27;20378;-47
2022/02/20 08:12:35;;;;;;;;;;;21.80;45.60;;;;;;5156930;27;19968;-46
2022/02/20 08:15:02;;;;;;;;;;;21.80;45.60;;;;;;5156105;27;20335;-45
2022/02/20 08:17:29;;;;;;;;;;;21.80;45.60;;;;;;5156849;27;19927;-47
2022/02/20 08:19:56;;;;;;;;;;;21.90;45.60;;;;;;5155516;27;19927;-43
2022/02/20 08:22:24;;;;;;;;;;;21.90;45.60;;;;;;5156180;27;19939;-47
2022/02/20 08:24:51;;;;;;;;;;;21.90;45.60;;;;;;5156693;27;19923;-48
2022/02/20 08:27:18;;;;;;;;;;;21.90;45.50;;;;;;5137886;27;19945;-49
2022/02/20 08:29:45;;;;;;;;;;;21.90;45.50;;;;;;5155494;27;20002;-49
2022/02/20 08:32:12;;;;;;;;;;;21.90;45.50;;;;;;5156239;27;19997;-45
2022/02/20 08:34:39;;;;;;;;;;;21.90;45.50;;;;;;5156937;27;19923;-47
2022/02/20 08:37:06;;;;;;;;;;;21.90;45.50;;;;;;5155382;27;19966;-50
2022/02/20 08:39:34;;;;;;;;;;;21.90;45.40;;;;;;5156951;27;19966;-50
2022/02/20 08:42:02;;;;;;;;;;;22.00;45.50;;;;;;5156041;27;20386;-45
2022/02/20 08:44:33;;;;;;;;;;;22.00;45.40;;;;;;5136828;27;19927;-50
2022/02/20 08:47:01;;;;;;;;;;;22.00;45.40;;;;;;5156019;27;19927;-49
2022/02/20 08:49:28;;;;;;;;;;;22.00;45.30;;;;;;5156203;27;19923;-47
2022/02/20 08:51:55;;;;;;;;;;;22.10;45.30;;;;;;5154872;27;19948;-49
2022/02/20 08:54:22;;;;;;;;;;;22.10;45.30;;;;;;5156046;27;19923;-50
2022/02/20 08:56:49;;;;;;;;;;;22.10;45.30;;;;;;5156402;27;19923;-47
2022/02/20 08:59:16;;;;;;;;;;;22.10;45.20;;;;;;5155218;27;19923;-50
2022/02/20 09:01:43;;;;;;;;;;;22.10;45.20;;;;;;5156009;27;20375;-46
2022/02/20 09:04:12;;;;;;;;;;;22.10;45.20;;;;;;5155972;27;19970;-49
2022/02/20 09:06:40;;;;;;;;;;;22.10;45.20;;;;;;5154684;27;19927;-44
2022/02/20 09:09:07;;;;;;;;;;;22.10;45.20;;;;;;5155892;27;19923;-49
2022/02/20 09:11:34;;;;;;;;;;;22.10;45.10;;;;;;5155577;27;20335;-44
2022/02/20 09:14:01;;;;;;;;;;;22.20;45.20;;;;;;5154888;27;19976;-44
2022/02/20 09:16:28;;;;;;;;;;;22.10;45.00;;;;;;5134652;27;19931;-45
2022/02/20 09:18:57;;;;;;;;;;;22.20;45.10;;;;;;5134842;27;19924;-46
2022/02/20 09:21:24;;;;;;;;;;;22.20;45.00;;;;;;5142998;27;19962;-44
2022/02/20 09:23:51;;;;;;;;;;;22.20;44.90;;;;;;5155723;27;20327;-46
2022/02/20 09:26:18;;;;;;;;;;;22.20;44.80;;;;;;5155610;27;19945;-45
2022/02/20 09:28:45;;;;;;;;;;;22.20;44.80;;;;;;5155166;27;20378;-44
2022/02/20 09:31:12;;;;;;;;;;;22.20;44.70;;;;;;5154596;27;19968;-43
2022/02/20 09:33:40;;;;;;;;;;;22.20;44.70;;;;;;5156377;27;19968;-44
2022/02/20 09:36:07;;;;;;;;;;;22.30;44.80;;;;;;5154273;27;20378;-43
2022/02/20 09:38:36;;;;;;;;;;;22.30;44.70;;;;;;5154987;27;19923;-45
2022/02/20 09:41:07;;;;;;;;;;;22.30;44.70;;;;;;5156688;27;20362;-49
2022/02/20 09:43:35;;;;;;;;;;;22.30;44.60;;;;;;5161902;27;19930;-45
2022/02/20 09:46:02;;;;;;;;;;;22.40;44.70;;;;;;5160656;27;20378;-45
2022/02/20 09:48:30;;;;;;;;;;;22.40;44.60;;;;;;5162134;27;19963;-46
2022/02/20 09:50:57;;;;;;;;;;;22.40;44.60;;;;;;5161034;27;19998;-44
2022/02/20 09:53:24;;;;;;;;;;;22.40;44.60;;;;;;5161915;27;19923;-47
2022/02/20 09:55:52;;;;;;;;;;;22.40;44.50;;;;;;5161960;27;19931;-48
2022/02/20 09:58:19;;;;;;;;;;;22.40;44.50;;;;;;5162003;27;19923;-48
2022/02/20 10:00:53;;;;;;;;;;;22.50;44.50;;;;;;5161140;27;19923;-44
2022/02/20 10:03:30;;;;;;;;;;;22.50;44.40;;;;;;5161824;27;19927;-45
2022/02/20 10:05:58;;;;;;;;;;;22.50;44.40;;;;;;5161180;27;19930;-49
2022/02/20 10:08:25;;;;;;;;;;;22.50;44.30;;;;;;5162177;27;19927;-49
2022/02/20 10:10:52;;;;;;;;;;;22.60;44.30;;;;;;5161801;27;20026;-45
2022/02/20 10:13:26;;;;;;;;;;;22.60;44.20;;;;;;5162391;27;19923;-44
2022/02/20 10:15:54;;;;;;;;;;;22.70;44.20;;;;;;5160967;27;19931;-47
2022/02/20 10:18:21;;;;;;;;;;;22.70;44.20;;;;;;5161912;27;20335;-46
2022/02/20 10:20:58;;;;;;;;;;;22.70;44.10;;;;;;5162058;27;19975;-46
2022/02/20 10:23:35;;;;;;;;;;;22.70;44.00;;;;;;5140627;27;19984;-51
2022/02/20 10:26:13;;;;;;;;;;;22.80;44.00;;;;;;5123368;27;20280;-49
2022/02/20 10:28:59;;;;;;;;;;;22.80;44.00;;;;;;5141113;27;19972;-46
2022/02/20 10:31:43;;;;;;;;;;;22.80;44.00;;;;;;5154123;27;20327;-45
2022/02/20 10:34:12;;;;;;;;;;;22.80;43.90;;;;;;5162246;27;19930;-45
2022/02/20 10:36:45;;;;;;;;;;;22.80;43.90;;;;;;5142465;27;19931;-46
2022/02/20 10:39:19;;;;;;;;;;;22.80;43.80;;;;;;5161542;27;19976;-47
2022/02/20 10:41:46;;;;;;;;;;;22.90;43.90;;;;;;5161817;27;19953;-45
2022/02/20 10:44:14;;;;;;;;;;;22.90;44.40;;;;;;5161875;27;19972;-44
2022/02/20 10:46:41;;;;;;;;;;;23.00;43.90;;;;;;5161018;27;20381;-45
2022/02/20 10:49:20;;;;;;;;;;;22.90;43.80;;;;;;5161478;27;20367;-45
2022/02/20 10:51:47;;;;;;;;;;;23.00;43.80;;;;;;5160471;27;19969;-43
2022/02/20 10:54:14;;;;;;;;;;;23.00;43.80;;;;;;5156784;27;20030;-44
2022/02/20 10:56:42;;;;;;;;;;;23.00;43.80;;;;;;5158298;27;20323;-45
2022/02/20 10:59:10;;;;;;;;;;;23.00;43.80;;;;;;5157777;27;20389;-43
2022/02/20 11:01:37;;;;;;;;;;;23.00;43.80;;;;;;5138789;27;19930;-44
2022/02/20 11:04:10;;;;;;;;;;;23.00;43.70;;;;;;5139902;27;19923;-47
2022/02/20 11:06:38;;;;;;;;;;;23.00;43.80;;;;;;5156861;27;19927;-47
2022/02/20 11:09:05;;;;;;;;;;;23.00;43.80;;;;;;5158127;27;19926;-46
2022/02/20 11:11:36;;;;;;;;;;;23.00;43.80;;;;;;5158092;27;19923;-50
2022/02/20 11:14:13;;;;;;;;;;;23.10;43.90;;;;;;5157766;27;20002;-47
2022/02/20 11:16:46;;;;;;;;;;;23.00;43.80;;;;;;5157466;27;20358;-46
2022/02/20 11:19:15;;;;;;;;;;;23.10;43.90;;;;;;5157740;27;19993;-44
2022/02/20 11:21:43;;;;;;;;;;;23.10;43.90;;;;;;5156744;27;20006;-45
2022/02/20 11:24:11;;;;;;;;;;;23.10;44.00;;;;;;5157817;27;19976;-44
2022/02/20 11:26:42;;;;;;;;;;;23.10;43.90;;;;;;5157918;27;19958;-45
2022/02/20 11:29:09;;;;;;;;;;;23.10;43.90;;;;;;5157752;27;19929;-47
2022/02/20 11:31:37;;;;;;;;;;;23.10;43.90;;;;;;5157152;27;19923;-44
2022/02/20 11:34:05;;;;;;;;;;;23.20;44.00;;;;;;5157766;27;19976;-44
2022/02/20 11:36:32;;;;;;;;;;;23.10;43.90;;;;;;5157286;27;20413;-46
2022/02/20 11:39:03;;;;;;;;;;;23.20;44.00;;;;;;5156567;27;19957;-45
2022/02/20 11:41:30;;;;;;;;;;;23.10;44.00;;;;;;5157783;27;19927;-45
2022/02/20 11:44:17;;;;;;;;;;;23.10;43.90;;;;;;5157540;27;19923;-44
2022/02/20 11:46:49;;;;;;;;;;;23.20;44.00;;;;;;5156387;27;19923;-44
2022/02/20 11:49:19;;;;;;;;;;;23.20;43.90;;;;;;5157135;27;19972;-45
2022/02/20 11:52:05;;;;;;;;;;;23.20;44.00;;;;;;5156852;27;20367;-46
2022/02/20 11:54:34;;;;;;;;;;;23.20;43.90;;;;;;5136485;27;20378;-49
2022/02/20 11:57:10;;;;;;;;;;;23.20;44.00;;;;;;5136464;27;20341;-49
2022/02/20 11:59:37;;;;;;;;;;;23.30;44.00;;;;;;5136195;27;19938;-44
2022/02/20 12:02:13;;;;;;;;;;;23.20;44.00;;;;;;5145671;27;19929;-48
2022/02/20 12:04:55;;;;;;;;;;;23.30;44.10;;;;;;5156484;27;19927;-45
2022/02/20 12:07:30;;;;;;;;;;;23.30;44.10;;;;;;5155369;27;19930;-47
2022/02/20 12:10:15;;;;;;;;;;;23.30;44.10;;;;;;5156155;27;19929;-47
2022/02/20 12:12:45;;;;;;;;;;;23.30;44.10;;;;;;5156362;27;19923;-48
2022/02/20 12:15:24;;;;;;;;;;;23.30;44.10;;;;;;5156671;27;19927;-49
2022/02/20 12:18:01;;;;;;;;;;;23.30;44.10;;;;;;5155886;27;19927;-44
2022/02/20 12:20:48;;;;;;;;;;;23.30;44.10;;;;;;5156838;27;20325;-45
2022/02/20 12:23:35;;;;;;;;;;;23.30;44.10;;;;;;5154860;27;19923;-44
2022/02/20 12:26:07;;;;;;;;;;;23.30;44.20;;;;;;5156343;27;19926;-47
2022/02/20 12:28:41;;;;;;;;;;;23.30;44.30;;;;;;5156605;27;19976;-48
2022/02/20 12:31:31;;;;;;;;;;;23.30;44.30;;;;;;5156645;27;19930;-46
2022/02/20 12:33:58;;;;;;;;;;;23.30;44.30;;;;;;5124895;27;19966;-47
2022/02/20 12:36:30;;;;;;;;;;;23.30;44.30;;;;;;5135375;27;19972;-49
2022/02/20 12:39:03;;;;;;;;;;;23.30;44.40;;;;;;5148071;27;20386;-47
2022/02/20 12:41:31;;;;;;;;;;;23.30;44.40;;;;;;5156239;27;19962;-49
2022/02/20 12:43:59;;;;;;;;;;;23.30;44.40;;;;;;5155842;27;19923;-47
2022/02/20 12:46:26;;;;;;;;;;;23.30;44.40;;;;;;5156088;27;20335;-48
2022/02/20 12:48:55;;;;;;;;;;;23.30;44.50;;;;;;5156142;27;19923;-46
2022/02/20 12:51:22;;;;;;;;;;;23.30;44.50;;;;;;5155781;27;19927;-49
2022/02/20 12:53:49;;;;;;;;;;;23.30;44.40;;;;;;5155186;27;20013;-46
2022/02/20 12:56:29;;;;;;;;;;;23.30;44.40;;;;;;5155832;27;19970;-45
2022/02/20 12:58:56;;;;;;;;;;;23.30;44.40;;;;;;5155906;27;19923;-48
2022/02/20 13:01:23;;;;;;;;;;;23.30;44.50;;;;;;5155582;27;19923;-43
2022/02/20 13:03:51;;;;;;;;;;;23.30;44.50;;;;;;5155225;27;19923;-50
2022/02/20 13:06:18;;;;;;;;;;;23.30;44.50;;;;;;5155861;27;19946;-47
2022/02/20 13:08:46;;;;;;;;;;;23.30;44.50;;;;;;5154874;27;19966;-44
2022/02/20 13:11:23;;;;;;;;;;;23.30;44.50;;;;;;5155879;27;19923;-44
2022/02/20 13:13:50;;;;;;;;;;;23.30;44.50;;;;;;5155516;27;20370;-46
2022/02/20 13:16:23;;;;;;;;;;;23.30;44.50;;;;;;5154712;27;19974;-45
2022/02/20 13:18:50;;;;;;;;;;;23.30;44.50;;;;;;5154854;27;19923;-44
2022/02/20 13:21:17;;;;;;;;;;;23.30;44.50;;;;;;5155525;27;19991;-46
2022/02/20 13:23:45;;;;;;;;;;;23.30;44.50;;;;;;5154483;27;19923;-45
2022/02/20 13:26:13;;;;;;;;;;;23.40;44.50;;;;;;5155688;27;19927;-44
2022/02/20 13:28:44;;;;;;;;;;;23.40;44.50;;;;;;5155581;27;19991;-45
2022/02/20 13:31:12;;;;;;;;;;;23.40;44.50;;;;;;5155618;27;19927;-44
2022/02/20 13:33:46;;;;;;;;;;;23.40;44.50;;;;;;5154848;27;19923;-46
2022/02/20 13:36:17;;;;;;;;;;;23.40;44.50;;;;;;5155533;27;19923;-43
2022/02/20 13:38:46;;;;;;;;;;;23.40;44.50;;;;;;5136441;27;20057;-45
2022/02/20 13:41:16;;;;;;;;;;;23.40;44.50;;;;;;5155228;27;20447;-46
2022/02/20 13:43:50;;;;;;;;;;;23.40;44.50;;;;;;5155196;27;19944;-45
2022/02/20 13:46:31;;;;;;;;;;;23.50;44.60;;;;;;5155188;27;19927;-44
2022/02/20 13:48:58;;;;;;;;;;;23.40;44.60;;;;;;5154401;27;19926;-47
2022/02/20 13:51:26;;;;;;;;;;;23.40;44.60;;;;;;5154914;27;19968;-45
2022/02/20 13:54:01;;;;;;;;;;;23.40;44.60;;;;;;5135977;27;19975;-44
2022/02/20 13:56:47;;;;;;;;;;;23.40;44.60;;;;;;5154993;27;19962;-45
2022/02/20 13:59:16;;;;;;;;;;;23.40;44.60;;;;;;5137047;27;19930;-45
2022/02/20 14:01:47;;;;;;;;;;;23.40;44.60;;;;;;5154978;27;19923;-49
2022/02/20 14:04:22;;;;;;;;;;;23.40;44.60;;;;;;5154221;27;20450;-46
2022/02/20 14:06:59;;;;;;;;;;;23.40;44.60;;;;;;5154951;27;19927;-46
2022/02/20 14:09:27;;;;;;;;;;;23.40;44.60;;;;;;5154045;27;20335;-45
2022/02/20 14:12:13;;;;;;;;;;;23.50;44.70;;;;;;5154927;27;19991;-46
2022/02/20 14:14:56;;;;;;;;;;;23.40;44.70;;;;;;5154876;27;19923;-45
2022/02/20 14:17:43;;;;;;;;;;;23.40;44.70;;;;;;5154864;27;19946;-49
2022/02/20 14:20:10;;;;;;;;;;;23.40;44.70;;;;;;5154685;27;19923;-46
2022/02/20 14:22:38;;;;;;;;;;;23.40;44.80;;;;;;5155130;27;19930;-46
2022/02/20 14:25:08;;;;;;;;;;;23.40;44.80;;;;;;5153875;27;19975;-46